Time;durP1;ratioP1;P1;durP2;ratioP2;P2;SDS_P1;SDS_P2;PMS_P1;PMS_P2;Temp;Humidity;BMP_temperature;BMP_pressure;BME280_temperature;BME280_humidity;BME280_pressure;Samples;Min_cycle;Max_cycle;Signal;HPM_P1;HPM_P2
2021/04/28 00:00:10;;;;;;;16.28;8.88;;;;;;;2.64;50.39;98314.13;261269;1096;24437;-73
2021/04/28 00:05:28;;;;;;;17.27;10.20;;;;;;;2.59;50.69;98311.42;260946;1094;22741;-72
2021/04/28 00:10:36;;;;;;;18.67;9.63;;;;;;;2.51;50.46;98302.09;260943;1096;25894;-72
2021/04/28 00:15:42;;;;;;;15.03;8.80;;;;;;;2.42;50.71;98303.55;261002;1096;27432;-72
2021/04/28 00:20:48;;;;;;;22.37;9.43;;;;;;;2.34;51.41;98294.23;261351;1101;22807;-72
2021/04/28 00:25:52;;;;;;;21.43;9.87;;;;;;;2.27;51.55;98293.59;261119;1096;22761;-73
2021/04/28 00:30:55;;;;;;;18.13;9.53;;;;;;;2.22;51.62;98295.15;261487;1096;25797;-74
2021/04/28 00:36:04;;;;;;;17.20;9.10;;;;;;;2.20;51.85;98299.08;261175;1097;23396;-73
2021/04/28 00:41:12;;;;;;;18.40;9.43;;;;;;;2.14;51.91;98294.75;260819;1101;22765;-73
2021/04/28 00:46:15;;;;;;;16.70;9.00;;;;;;;2.18;52.86;98294.04;261354;1096;23019;-73
2021/04/28 00:51:18;;;;;;;18.47;8.83;;;;;;;2.18;52.28;98294.04;261000;1096;26202;-72
2021/04/28 00:56:22;;;;;;;19.50;10.00;;;;;;;2.14;52.57;98298.21;261291;1096;22916;-72
2021/04/28 01:01:24;;;;;;;20.37;9.97;;;;;;;2.10;51.86;98297.10;260891;1096;25980;-73
2021/04/28 01:06:28;;;;;;;16.45;8.30;;;;;;;2.09;51.89;98303.42;260982;1101;22866;-73
2021/04/28 01:11:32;;;;;;;14.75;7.95;;;;;;;2.16;52.99;98298.75;261090;1101;22758;-72
2021/04/28 01:16:37;;;;;;;16.83;8.80;;;;;;;2.33;52.05;98298.70;261027;1096;26213;-72
2021/04/28 01:21:41;;;;;;;19.10;9.30;;;;;;;2.47;52.31;98293.84;261266;1101;22771;-73
2021/04/28 01:26:48;;;;;;;17.03;8.57;;;;;;;2.59;52.78;98292.91;260953;1096;25833;-73
2021/04/28 01:31:54;;;;;;;15.70;8.60;;;;;;;2.66;52.88;98293.51;260869;1096;22732;-73
2021/04/28 01:36:57;;;;;;;13.93;8.40;;;;;;;2.69;52.59;98299.11;260594;1096;22748;-73
2021/04/28 01:42:01;;;;;;;14.40;8.40;;;;;;;2.70;52.37;98292.78;260574;1096;22788;-72
2021/04/28 01:47:05;;;;;;;14.30;8.93;;;;;;;2.77;51.98;98295.23;261065;1096;27728;-73
2021/04/28 01:52:10;;;;;;;15.20;8.80;;;;;;;2.71;52.22;98289.09;261294;1101;22800;-73
2021/04/28 01:57:14;;;;;;;12.83;8.07;;;;;;;2.63;52.51;98286.08;261355;1097;27546;-72
2021/04/28 02:02:35;;;;;;;22.05;9.33;;;;;;;2.51;53.15;98280.94;261252;1101;22926;-71
2021/04/28 02:07:59;;;;;;;14.07;8.53;;;;;;;2.36;53.47;98270.98;261218;1096;22770;-73
2021/04/28 02:13:03;;;;;;;17.17;9.70;;;;;;;2.20;53.36;98278.72;260957;1101;24546;-73
2021/04/28 02:18:16;;;;;;;19.53;9.90;;;;;;;2.08;53.95;98279.89;260994;1096;24371;-72
2021/04/28 02:23:23;;;;;;;19.20;9.20;;;;;;;1.99;54.53;98277.66;261014;1096;22890;-73
2021/04/28 02:28:27;;;;;;;23.87;11.07;;;;;;;1.89;54.65;98272.26;261287;1096;25996;-72
2021/04/28 02:33:37;;;;;;;19.03;10.10;;;;;;;1.80;54.90;98276.34;260623;1097;24273;-73
2021/04/28 02:39:21;;;;;;;16.60;8.90;;;;;;;1.69;55.06;98273.57;261210;1096;26099;-73
2021/04/28 02:44:26;;;;;;;18.43;10.40;;;;;;;1.61;55.56;98270.52;261105;1101;22916;-73
2021/04/28 02:49:31;;;;;;;16.75;10.40;;;;;;;1.49;55.36;98276.69;261535;1097;22817;-72
2021/04/28 02:54:52;;;;;;;14.87;8.80;;;;;;;1.40;55.72;98270.23;261042;1096;22935;-73
2021/04/28 02:59:59;;;;;;;17.53;9.87;;;;;;;1.32;56.06;98268.00;261243;1096;22828;-73
2021/04/28 03:05:04;;;;;;;16.70;9.77;;;;;;;1.21;56.98;98259.11;261192;1101;22799;-73
2021/04/28 03:10:34;;;;;;;16.13;8.95;;;;;;;1.17;56.75;98263.27;261074;1101;24414;-72
2021/04/28 03:15:38;;;;;;;19.03;8.70;;;;;;;1.12;56.61;98263.99;261531;1101;22777;-72
2021/04/28 03:20:47;;;;;;;15.43;7.27;;;;;;;1.08;56.78;98268.14;261393;1096;22799;-72
2021/04/28 03:25:51;;;;;;;18.17;9.60;;;;;;;1.06;56.95;98261.50;261318;1101;22761;-72
2021/04/28 03:30:54;;;;;;;21.23;10.57;;;;;;;1.05;57.27;98267.80;261096;1098;22994;-72
2021/04/28 03:35:57;;;;;;;23.83;10.77;;;;;;;1.07;57.33;98268.38;261441;1097;26047;-73
2021/04/28 03:41:18;;;;;;;21.93;11.53;;;;;;;1.07;57.36;98274.45;261290;1096;22753;-74
2021/04/28 03:46:21;;;;;;;21.83;11.40;;;;;;;1.10;57.37;98270.54;261274;1096;22913;-73
2021/04/28 03:51:27;;;;;;;20.00;10.53;;;;;;;1.16;57.59;98269.57;261037;1096;26127;-73
2021/04/28 03:56:48;;;;;;;17.80;10.57;;;;;;;1.22;58.28;98273.09;261209;1096;26012;-72
2021/04/28 04:01:51;;;;;;;20.00;10.57;;;;;;;1.27;58.05;98271.33;261006;1101;22767;-72
2021/04/28 04:06:56;;;;;;;19.90;10.97;;;;;;;1.34;58.25;98276.45;260516;1104;24569;-72
2021/04/28 04:12:18;;;;;;;18.53;10.00;;;;;;;1.43;58.64;98275.03;260949;1096;25858;-72
2021/04/28 04:17:30;;;;;;;20.90;11.40;;;;;;;1.49;58.42;98267.98;261118;1101;23506;-71
2021/04/28 04:22:54;;;;;;;16.73;10.07;;;;;;;1.63;59.03;98265.81;261255;1096;22806;-73
2021/04/28 04:28:08;;;;;;;20.27;10.70;;;;;;;1.79;58.47;98272.92;261272;1097;25999;-73
2021/04/28 04:33:35;;;;;;;23.03;12.80;;;;;;;1.87;59.25;98269.86;261111;1096;24380;-73
2021/04/28 04:38:56;;;;;;;22.43;10.57;;;;;;;1.97;59.02;98281.59;261306;1097;25887;-72
2021/04/28 04:44:19;;;;;;;21.07;11.90;;;;;;;2.05;60.16;98283.81;260577;1099;25982;-74
2021/04/28 04:49:32;;;;;;;20.50;10.87;;;;;;;2.23;59.81;98283.51;260735;1096;25929;-72
2021/04/28 04:54:35;;;;;;;19.15;9.75;;;;;;;2.46;60.21;98286.16;261480;1101;22722;-73
2021/04/28 04:59:37;;;;;;;21.73;11.97;;;;;;;2.78;59.35;98291.52;261196;1096;22775;-73
2021/04/28 05:04:55;;;;;;;18.35;10.60;;;;;;;3.13;58.93;98290.27;261121;1101;22994;-73
2021/04/28 05:10:15;;;;;;;21.37;12.50;;;;;;;3.44;58.94;98282.58;261305;1101;24122;-73
2021/04/28 05:15:19;;;;;;;18.07;10.43;;;;;;;3.81;58.45;98276.48;261003;1101;22882;-74
2021/04/28 05:20:24;;;;;;;21.43;11.87;;;;;;;4.13;58.10;98278.25;261267;1096;25954;-73
2021/04/28 05:25:27;;;;;;;27.10;14.73;;;;;;;4.54;57.75;98274.95;261353;1097;25913;-73
2021/04/28 05:30:30;;;;;;;22.17;14.33;;;;;;;5.00;57.27;98275.05;260988;1096;22771;-74
2021/04/28 05:35:33;;;;;;;26.70;16.03;;;;;;;5.55;56.35;98280.63;261663;1101;22892;-70
2021/04/28 05:40:36;;;;;;;24.33;14.10;;;;;;;6.00;55.38;98278.19;261379;1101;23413;-72
2021/04/28 05:45:43;;;;;;;24.10;15.17;;;;;;;6.45;54.79;98275.63;261387;1101;22798;-72
2021/04/28 05:50:46;;;;;;;28.40;16.20;;;;;;;6.94;53.83;98285.50;261399;1096;25935;-72
2021/04/28 05:55:49;;;;;;;25.77;15.00;;;;;;;7.33;52.96;98284.70;261715;1101;22758;-72
2021/04/28 06:00:54;;;;;;;23.73;14.13;;;;;;;7.66;51.82;98273.48;261390;1101;22770;-72
2021/04/28 06:05:57;;;;;;;21.65;13.80;;;;;;;7.94;51.40;98282.53;261649;1096;25957;-71
2021/04/28 06:10:59;;;;;;;22.47;14.43;;;;;;;8.19;50.89;98272.67;261367;1101;22765;-70
2021/04/28 06:16:02;;;;;;;23.17;14.07;;;;;;;8.44;50.89;98274.23;261561;1101;22734;-71
2021/04/28 06:21:05;;;;;;;21.47;13.80;;;;;;;8.68;49.91;98281.44;261465;1097;24523;-71
2021/04/28 06:26:09;;;;;;;23.17;13.67;;;;;;;8.93;49.38;98274.17;260904;1104;22829;-70
2021/04/28 06:31:13;;;;;;;19.53;13.50;;;;;;;9.20;49.16;98282.28;261282;1101;23529;-69
2021/04/28 06:36:18;;;;;;;19.93;12.67;;;;;;;9.44;48.31;98284.05;262069;1101;22800;-71
2021/04/28 06:41:21;;;;;;;19.25;12.60;;;;;;;9.67;47.78;98279.66;261616;1101;22878;-71
2021/04/28 06:46:24;;;;;;;16.67;12.47;;;;;;;9.93;47.84;98268.50;261520;1096;24424;-70
2021/04/28 06:51:27;;;;;;;19.20;13.05;;;;;;;10.15;46.85;98267.81;265264;1097;23490;-70
2021/04/28 06:56:30;;;;;;;19.43;12.97;;;;;;;10.30;46.30;98260.56;259111;1096;22764;-69
2021/04/28 07:01:33;;;;;;;18.57;12.40;;;;;;;10.53;46.11;98269.50;261635;1101;23026;-70
2021/04/28 07:06:39;;;;;;;17.53;12.00;;;;;;;10.81;45.77;98261.41;261825;1097;22760;-70
2021/04/28 07:11:42;;;;;;;18.77;11.43;;;;;;;11.02;45.38;98262.52;262090;1101;22768;-70
2021/04/28 07:16:45;;;;;;;17.10;10.90;;;;;;;11.08;44.87;98261.33;261596;1101;22734;-69
2021/04/28 07:21:49;;;;;;;17.47;11.37;;;;;;;11.15;44.73;98255.55;260851;1096;22737;-70
2021/04/28 07:26:54;;;;;;;16.37;10.67;;;;;;;11.30;44.36;98262.41;258730;1097;25938;-70
2021/04/28 07:32:01;;;;;;;17.97;10.60;;;;;;;11.49;44.08;98256.86;268440;1104;23431;-71
2021/04/28 07:37:06;;;;;;;15.50;9.95;;;;;;;11.64;43.44;98261.84;262536;1096;26197;-70
2021/04/28 07:42:08;;;;;;;14.70;9.57;;;;;;;11.73;42.88;98259.19;261571;1096;22762;-70
2021/04/28 07:47:11;;;;;;;13.13;8.63;;;;;;;11.79;42.42;98252.61;261612;1097;22764;-70
2021/04/28 07:52:16;;;;;;;15.90;8.70;;;;;;;11.87;42.64;98242.22;261793;1101;22843;-71
2021/04/28 07:57:19;;;;;;;13.20;8.60;;;;;;;11.93;42.18;98246.33;261873;1101;22886;-71
2021/04/28 08:02:22;;;;;;;11.95;7.75;;;;;;;12.10;42.44;98243.76;262009;1096;25825;-72
2021/04/28 08:07:24;;;;;;;11.50;7.30;;;;;;;12.28;42.14;98241.11;262384;1101;22863;-71
2021/04/28 08:12:27;;;;;;;11.47;7.10;;;;;;;12.43;41.67;98243.34;261783;1101;22771;-72
2021/04/28 08:17:29;;;;;;;11.00;6.90;;;;;;;12.61;42.18;98227.27;261589;1097;22851;-72
2021/04/28 08:22:36;;;;;;;9.43;6.03;;;;;;;12.88;41.15;98231.53;262521;1101;22744;-70
2021/04/28 08:27:40;;;;;;;8.60;5.40;;;;;;;13.00;40.60;98228.22;264190;1099;23740;-71
2021/04/28 08:32:42;;;;;;;8.55;5.95;;;;;;;13.13;40.05;98226.47;262818;1096;25903;-72
2021/04/28 08:37:47;;;;;;;6.17;4.90;;;;;;;13.26;39.78;98219.32;262412;1096;26212;-72
2021/04/28 08:42:50;;;;;;;7.95;5.45;;;;;;;13.39;39.41;98225.65;262102;1097;25616;-72
2021/04/28 08:47:52;;;;;;;8.80;5.10;;;;;;;13.52;39.25;98220.08;261965;1099;25816;-72
2021/04/28 08:52:56;;;;;;;8.75;5.05;;;;;;;13.65;39.52;98221.02;262860;1101;24602;-72
2021/04/28 08:57:59;;;;;;;7.40;4.80;;;;;;;13.83;39.17;98220.93;262072;1097;26731;-74
2021/04/28 09:03:03;;;;;;;6.50;4.13;;;;;;;13.96;38.79;98216.43;261772;1104;23606;-72
2021/04/28 09:08:10;;;;;;;5.20;3.80;;;;;;;14.07;38.30;98216.86;264523;1096;24563;-72
2021/04/28 09:13:22;;;;;;;5.73;4.43;;;;;;;14.19;38.26;98219.66;263623;1096;25929;-71
2021/04/28 09:18:36;;;;;;;6.00;3.80;;;;;;;14.28;37.79;98208.82;263165;1096;23477;-71
2021/04/28 09:23:48;;;;;;;6.25;4.70;;;;;;;14.40;37.42;98197.35;262123;1094;25909;-70
2021/04/28 09:29:19;;;;;;;4.05;3.55;;;;;;;14.55;36.90;98207.55;262047;1096;28405;-72
2021/04/28 09:34:33;;;;;;;5.73;3.87;;;;;;;14.77;37.12;98200.27;265068;1101;22730;-72
2021/04/28 09:39:42;;;;;;;7.40;4.57;;;;;;;14.91;36.55;98197.30;262263;1101;22843;-72
2021/04/28 09:44:50;;;;;;;8.50;4.65;;;;;;;14.94;36.14;98172.36;261819;1101;24578;-72
2021/04/28 09:50:00;;;;;;;9.15;6.15;;;;;;;15.01;35.84;98180.69;262035;1101;24561;-71
2021/04/28 09:55:14;;;;;;;11.70;4.30;;;;;;;15.14;36.14;98160.73;268873;1101;22530;-72
2021/04/28 10:00:28;;;;;;;5.10;3.95;;;;;;;15.30;35.98;98170.89;264331;1096;22756;-71
2021/04/28 10:05:47;;;;;;;6.05;4.30;;;;;;;15.46;35.82;98168.31;262051;1104;22785;-74
2021/04/28 10:11:09;;;;;;;5.35;3.85;;;;;;;15.38;34.90;98156.52;262145;1097;24516;-73
2021/04/28 10:16:12;;;;;;;5.15;4.05;;;;;;;15.36;34.50;98156.85;261853;1097;23934;-72
2021/04/28 10:21:17;;;;;;;5.55;4.00;;;;;;;15.53;34.86;98153.16;261510;1096;22832;-72
2021/04/28 10:26:20;;;;;;;8.40;4.50;;;;;;;15.73;34.37;98140.67;267913;1096;22820;-72
2021/04/28 10:31:26;;;;;;;8.20;5.25;;;;;;;15.94;34.87;98134.39;262438;1096;25757;-73
2021/04/28 10:36:31;;;;;;;5.25;3.75;;;;;;;15.99;34.31;98136.88;269109;1101;22519;-71
2021/04/28 10:41:42;;;;;;;4.75;3.90;;;;;;;16.06;34.13;98120.07;268449;1096;23314;-72
2021/04/28 10:46:44;;;;;;;4.15;3.45;;;;;;;16.21;33.93;98113.96;266050;1097;28829;-71
2021/04/28 10:51:54;;;;;;;5.67;3.53;;;;;;;16.29;32.75;98119.59;262188;1096;23848;-72
2021/04/28 10:57:15;;;;;;;4.37;3.63;;;;;;;16.32;33.92;98105.39;261696;1101;23899;-72
2021/04/28 11:02:36;;;;;;;6.90;4.03;;;;;;;16.45;33.57;98104.20;265882;1096;23091;-72
2021/04/28 11:07:43;;;;;;;6.20;4.27;;;;;;;16.58;33.73;98099.56;261748;1104;24531;-72
2021/04/28 11:13:04;;;;;;;4.05;3.50;;;;;;;16.66;33.20;98101.33;262293;1099;23760;-71
2021/04/28 11:18:40;;;;;;;6.20;3.85;;;;;;;16.66;33.00;98095.13;262437;1096;22768;-72
2021/04/28 11:24:07;;;;;;;6.10;4.23;;;;;;;16.67;32.53;98075.06;268218;1101;23130;-72
2021/04/28 11:29:09;;;;;;;8.63;4.07;;;;;;;16.69;32.38;98075.50;268500;1096;24079;-72
2021/04/28 11:34:35;;;;;;;5.15;3.60;;;;;;;16.86;32.48;98072.48;269164;1101;22559;-72
2021/04/28 11:39:41;;;;;;;7.50;4.30;;;;;;;17.00;32.65;98065.88;267549;1101;22771;-73
2021/04/28 11:44:49;;;;;;;4.65;3.90;;;;;;;17.19;32.73;98055.16;261796;1101;24420;-71
2021/04/28 11:49:55;;;;;;;5.25;4.10;;;;;;;17.43;32.60;98050.68;263681;1096;22758;-71
2021/04/28 11:54:59;;;;;;;5.20;3.90;;;;;;;17.56;32.38;98048.67;262070;1101;22779;-72
2021/04/28 12:00:08;;;;;;;4.65;3.50;;;;;;;17.48;31.85;98045.01;261505;1096;23485;-72
2021/04/28 12:05:12;;;;;;;4.60;3.65;;;;;;;17.27;31.97;98048.78;262653;1101;22605;-72
2021/04/28 12:10:18;;;;;;;4.27;3.73;;;;;;;17.50;32.72;98036.53;261895;1101;22796;-72
2021/04/28 12:15:21;;;;;;;5.40;3.87;;;;;;;17.73;32.54;98039.38;261267;1096;26082;-71
2021/04/28 12:20:25;;;;;;;6.40;4.45;;;;;;;17.81;31.92;98032.17;261288;1096;22825;-72
2021/04/28 12:25:32;;;;;;;4.00;3.48;;;;;;;17.71;31.07;98028.09;264477;1101;22825;-72
2021/04/28 12:30:38;;;;;;;4.35;3.20;;;;;;;17.69;31.12;98023.03;261612;1096;23427;-71
2021/04/28 12:35:41;;;;;;;4.53;3.83;;;;;;;17.64;31.63;98003.57;261553;1101;24125;-71
2021/04/28 12:40:55;;;;;;;4.65;3.90;;;;;;;17.85;31.81;98009.45;261269;1101;22901;-72
2021/04/28 12:46:07;;;;;;;4.90;3.50;;;;;;;18.04;31.78;97999.79;261673;1096;22834;-71
2021/04/28 12:51:15;;;;;;;6.75;4.15;;;;;;;18.20;31.31;97986.15;261563;1101;22819;-71
2021/04/28 12:56:18;;;;;;;4.80;3.30;;;;;;;18.26;31.17;97974.66;261327;1096;25865;-71
2021/04/28 13:01:23;;;;;;;3.10;2.80;;;;;;;18.37;31.67;97974.88;261359;1097;24428;-72
2021/04/28 13:06:26;;;;;;;4.20;3.35;;;;;;;18.50;31.12;97977.42;261660;1101;22799;-71
2021/04/28 13:11:32;;;;;;;8.50;3.50;;;;;;;18.58;30.99;97981.80;261602;1096;22906;-71
2021/04/28 13:16:45;;;;;;;4.55;3.50;;;;;;;18.64;28.93;97970.30;261740;1101;22734;-71
2021/04/28 13:21:52;;;;;;;6.10;3.60;;;;;;;18.50;30.01;97975.48;261614;1101;22818;-71
2021/04/28 13:27:06;;;;;;;3.80;3.20;;;;;;;18.61;30.46;97962.11;261411;1096;22799;-71
2021/04/28 13:32:09;;;;;;;4.50;3.33;;;;;;;18.78;30.48;97958.13;261297;1097;26263;-71
2021/04/28 13:37:14;;;;;;;4.75;3.50;;;;;;;18.90;30.57;97952.55;261519;1097;25989;-71
2021/04/28 13:42:17;;;;;;;5.05;3.35;;;;;;;19.07;30.75;97951.25;261419;1096;22768;-70
2021/04/28 13:47:20;;;;;;;5.60;3.80;;;;;;;19.13;29.43;97946.29;261556;1097;22757;-72
2021/04/28 13:52:22;;;;;;;5.27;3.47;;;;;;;19.03;29.14;97941.47;261809;1096;23012;-72
2021/04/28 13:57:26;;;;;;;7.70;5.30;;;;;;;18.92;28.75;97939.38;262013;1101;23717;-72
2021/04/28 14:02:29;;;;;;;7.00;3.40;;;;;;;18.86;28.49;97948.16;262425;1096;28359;-71
2021/04/28 14:07:33;;;;;;;3.50;3.05;;;;;;;18.81;28.54;97936.47;262289;1097;24396;-72
2021/04/28 14:12:36;;;;;;;3.75;3.35;;;;;;;18.79;29.42;97930.63;261491;1101;23033;-74
2021/04/28 14:17:39;;;;;;;4.60;3.25;;;;;;;18.93;29.92;97926.61;260785;1101;22751;-72
2021/04/28 14:22:42;;;;;;;4.40;3.60;;;;;;;18.93;28.69;97921.19;261358;1096;23606;-72
2021/04/28 14:27:45;;;;;;;4.05;3.35;;;;;;;18.92;29.77;97920.39;261438;1097;25733;-72
2021/04/28 14:32:48;;;;;;;4.57;3.37;;;;;;;18.97;28.72;97922.80;261285;1096;24502;-72
2021/04/28 14:37:50;;;;;;;6.25;3.70;;;;;;;18.94;28.32;97917.30;261166;1101;22812;-72
2021/04/28 14:42:54;;;;;;;5.30;3.80;;;;;;;18.74;28.32;97916.59;261152;1101;22816;-73
2021/04/28 14:47:57;;;;;;;3.95;3.25;;;;;;;18.66;27.72;97909.48;261311;1101;22912;-72
2021/04/28 14:53:01;;;;;;;4.20;3.35;;;;;;;18.66;28.81;97898.64;261456;1097;24260;-72
2021/04/28 14:58:05;;;;;;;5.15;3.10;;;;;;;18.66;28.06;97891.27;261147;1096;27246;-73
2021/04/28 15:03:11;;;;;;;5.65;3.25;;;;;;;18.73;28.97;97894.12;260929;1096;24655;-73
2021/04/28 15:08:14;;;;;;;5.40;3.60;;;;;;;18.70;28.41;97892.11;261534;1096;25896;-74
2021/04/28 15:13:18;;;;;;;3.90;3.40;;;;;;;18.70;27.62;97888.63;261058;1101;22807;-71
2021/04/28 15:18:21;;;;;;;4.25;3.30;;;;;;;18.58;28.51;97882.25;261014;1096;26292;-72
2021/04/28 15:23:29;;;;;;;3.70;3.03;;;;;;;18.56;29.10;97881.05;261489;1096;25858;-71
2021/04/28 15:28:32;;;;;;;3.50;2.75;;;;;;;18.69;29.59;97873.48;261075;1097;23779;-72
2021/04/28 15:33:35;;;;;;;4.80;3.30;;;;;;;18.75;29.47;97870.11;261364;1096;25864;-72
2021/04/28 15:38:37;;;;;;;5.40;3.47;;;;;;;18.77;29.39;97867.80;261398;1101;23542;-72
2021/04/28 15:43:40;;;;;;;3.75;2.60;;;;;;;18.61;28.09;97864.47;261576;1096;28394;-72
2021/04/28 15:48:44;;;;;;;4.00;3.05;;;;;;;18.44;28.89;97861.11;261401;1096;24132;-72
2021/04/28 15:53:51;;;;;;;3.50;2.90;;;;;;;18.49;29.54;97859.23;261423;1096;25983;-72
2021/04/28 15:58:55;;;;;;;8.90;3.15;;;;;;;18.45;29.46;97851.03;261489;1096;25980;-72
2021/04/28 16:04:00;;;;;;;4.15;2.90;;;;;;;18.37;28.87;97843.93;261025;1101;23512;-72
2021/04/28 16:09:04;;;;;;;5.50;3.30;;;;;;;18.28;28.83;97842.24;260995;1101;22793;-72
2021/04/28 16:14:07;;;;;;;3.25;2.95;;;;;;;18.17;28.44;97841.28;261200;1096;25893;-72
2021/04/28 16:19:10;;;;;;;3.70;2.90;;;;;;;18.05;29.44;97842.26;261398;1097;22778;-72
2021/04/28 16:24:12;;;;;;;4.90;3.23;;;;;;;18.01;29.65;97837.93;261535;1101;22890;-72
2021/04/28 16:29:16;;;;;;;3.43;3.00;;;;;;;17.92;29.79;97838.14;261085;1096;27285;-73
2021/04/28 16:34:21;;;;;;;3.40;2.27;;;;;;;17.83;29.81;97840.28;261380;1096;24260;-73
2021/04/28 16:39:23;;;;;;;3.55;2.50;;;;;;;17.69;29.32;97833.45;261118;1096;25929;-73
2021/04/28 16:44:26;;;;;;;4.90;2.60;;;;;;;17.55;29.96;97831.25;261528;1101;24328;-72
2021/04/28 16:49:41;;;;;;;5.00;3.65;;;;;;;17.42;30.23;97830.63;261454;1101;22739;-73
2021/04/28 16:54:45;;;;;;;6.15;4.10;;;;;;;17.25;30.93;97836.45;261109;1096;25827;-73
2021/04/28 16:59:48;;;;;;;7.55;4.50;;;;;;;17.04;31.78;97831.38;261072;1101;22927;-72
2021/04/28 17:04:51;;;;;;;7.73;5.53;;;;;;;16.81;31.06;97829.31;261317;1096;26235;-73
2021/04/28 17:09:55;;;;;;;8.20;5.30;;;;;;;16.55;31.29;97833.38;261160;1101;23702;-71
2021/04/28 17:14:58;;;;;;;6.10;4.75;;;;;;;16.30;31.17;97848.20;261424;1101;22823;-73
2021/04/28 17:20:01;;;;;;;9.30;5.75;;;;;;;16.04;31.41;97838.70;261127;1101;24402;-73
2021/04/28 17:25:04;;;;;;;14.40;8.70;;;;;;;15.74;31.69;97837.14;261469;1101;22887;-72
2021/04/28 17:30:09;;;;;;;14.65;8.75;;;;;;;15.49;31.86;97841.09;261586;1101;22750;-72
2021/04/28 17:35:12;;;;;;;9.83;5.77;;;;;;;15.22;32.03;97848.80;261039;1101;22706;-72
2021/04/28 17:40:15;;;;;;;8.60;5.60;;;;;;;14.96;32.22;97846.52;261468;1101;24129;-72
2021/04/28 17:45:18;;;;;;;8.45;5.90;;;;;;;14.70;32.62;97847.66;261224;1101;22794;-72
2021/04/28 17:50:22;;;;;;;11.95;7.05;;;;;;;14.42;32.98;97848.30;261150;1096;24366;-72
2021/04/28 17:55:29;;;;;;;11.10;7.10;;;;;;;14.18;33.29;97849.06;261147;1097;26210;-72
2021/04/28 18:00:37;;;;;;;10.45;7.15;;;;;;;13.94;33.42;97853.28;261240;1096;24174;-72
2021/04/28 18:05:39;;;;;;;13.33;7.43;;;;;;;13.72;34.03;97859.83;261308;1101;22790;-73
2021/04/28 18:10:42;;;;;;;13.15;7.55;;;;;;;13.53;34.15;97860.33;261360;1096;25855;-72
2021/04/28 18:15:46;;;;;;;15.35;9.40;;;;;;;13.32;34.62;97863.78;261404;1096;25856;-72
2021/04/28 18:20:49;;;;;;;16.10;10.13;;;;;;;13.05;34.99;97870.45;260541;1104;24517;-73
2021/04/28 18:25:51;;;;;;;13.60;9.45;;;;;;;12.84;35.20;97865.05;260987;1096;26031;-73
2021/04/28 18:30:57;;;;;;;17.45;10.60;;;;;;;12.64;35.44;97871.95;261312;1096;24400;-72
2021/04/28 18:36:01;;;;;;;18.60;10.60;;;;;;;12.47;35.96;97887.03;261388;1101;25511;-73
2021/04/28 18:41:05;;;;;;;20.30;10.50;;;;;;;12.29;35.91;97880.16;261063;1097;22958;-73
2021/04/28 18:46:08;;;;;;;18.10;10.70;;;;;;;12.11;36.07;97884.79;261125;1101;22744;-72
2021/04/28 18:51:10;;;;;;;20.17;11.30;;;;;;;11.97;36.37;97887.66;261019;1101;22831;-72
2021/04/28 18:56:14;;;;;;;21.30;11.40;;;;;;;11.79;37.14;97893.05;261088;1096;24544;-71
2021/04/28 19:01:17;;;;;;;24.87;12.70;;;;;;;11.59;37.52;97899.82;260391;1104;23390;-73
2021/04/28 19:06:33;;;;;;;27.50;13.63;;;;;;;11.39;37.52;97892.42;260594;1104;22773;-72
2021/04/28 19:11:55;;;;;;;20.17;12.67;;;;;;;11.18;38.18;97893.03;261097;1096;24438;-72
2021/04/28 19:16:59;;;;;;;21.07;11.13;;;;;;;11.03;38.55;97896.16;261423;1096;25858;-71
2021/04/28 19:22:03;;;;;;;172.20;117.37;;;;;;;10.86;39.94;97891.55;261463;1095;22934;-71
2021/04/28 19:27:08;;;;;;;28.43;17.07;;;;;;;10.67;39.68;97894.48;261518;1093;24234;-72
2021/04/28 19:32:11;;;;;;;30.63;14.63;;;;;;;10.46;39.64;97891.57;261392;1093;27141;-72
2021/04/28 19:37:17;;;;;;;26.07;14.63;;;;;;;10.31;40.18;97906.11;261536;1094;24230;-72
2021/04/28 19:42:20;;;;;;;32.53;17.77;;;;;;;10.14;40.79;97904.14;261758;1093;22764;-71
2021/04/28 19:47:23;;;;;;;35.53;17.63;;;;;;;9.95;40.71;97886.41;261499;1093;24769;-72
2021/04/28 19:52:26;;;;;;;30.97;17.57;;;;;;;9.80;41.13;97894.81;261456;1101;23370;-72
2021/04/28 19:57:29;;;;;;;26.80;15.50;;;;;;;9.69;41.06;97892.36;261424;1101;24523;-72
2021/04/28 20:02:46;;;;;;;28.20;15.50;;;;;;;9.58;41.39;97883.00;261455;1093;25523;-71
2021/04/28 20:07:59;;;;;;;17.70;11.57;;;;;;;9.39;41.42;97883.19;261461;1101;23045;-72
2021/04/28 20:13:02;;;;;;;15.43;9.77;;;;;;;9.27;41.75;97888.27;261402;1093;24364;-71
2021/04/28 20:18:05;;;;;;;19.27;10.13;;;;;;;9.11;42.38;97883.25;261479;1093;25832;-73
2021/04/28 20:23:07;;;;;;;18.73;9.73;;;;;;;8.94;42.58;97889.22;261465;1093;23054;-72
2021/04/28 20:28:11;;;;;;;19.73;10.87;;;;;;;8.80;43.05;97883.89;261511;1093;22744;-72
2021/04/28 20:33:19;;;;;;;20.80;11.53;;;;;;;8.69;43.02;97888.64;261622;1093;25820;-71
2021/04/28 20:38:22;;;;;;;20.93;12.13;;;;;;;8.65;42.82;97882.31;261561;1101;22821;-71
2021/04/28 20:43:25;;;;;;;22.73;12.17;;;;;;;8.56;43.16;97887.55;261580;1093;24144;-72
2021/04/28 20:48:27;;;;;;;25.87;13.00;;;;;;;8.48;42.69;97890.10;261548;1093;22804;-71
2021/04/28 20:53:35;;;;;;;27.00;13.65;;;;;;;8.39;43.10;97885.45;261612;1093;25871;-72
2021/04/28 20:58:40;;;;;;;24.03;13.07;;;;;;;8.27;43.22;97877.13;261566;1093;26290;-71
2021/04/28 21:03:43;;;;;;;23.80;13.43;;;;;;;8.15;43.43;97884.81;261577;1093;24361;-72
2021/04/28 21:09:09;;;;;;;22.70;13.25;;;;;;;8.08;43.63;97873.73;261475;1093;25851;-72
2021/04/28 21:14:11;;;;;;;29.07;14.60;;;;;;;8.00;43.62;97868.00;261633;1101;22893;-71
2021/04/28 21:19:14;;;;;;;25.95;14.05;;;;;;;7.94;43.59;97869.15;261500;1101;24545;-72
2021/04/28 21:24:30;;;;;;;26.45;13.80;;;;;;;7.85;43.45;97860.26;261499;1101;22755;-71
2021/04/28 21:29:53;;;;;;;21.83;12.93;;;;;;;7.74;43.77;97862.30;261538;1101;22744;-73
2021/04/28 21:34:56;;;;;;;23.47;13.40;;;;;;;7.66;44.30;97865.63;261394;1101;23638;-72
2021/04/28 21:39:58;;;;;;;21.63;12.67;;;;;;;7.56;44.27;97866.57;261376;1093;25940;-71
2021/04/28 21:45:07;;;;;;;23.37;13.47;;;;;;;7.47;45.12;97868.30;261514;1093;26235;-73
2021/04/28 21:50:12;;;;;;;24.73;13.77;;;;;;;7.35;45.01;97869.53;261415;1101;22750;-72
2021/04/28 21:55:15;;;;;;;29.27;15.13;;;;;;;7.26;45.41;97865.95;261423;1096;22751;-71
2021/04/28 22:00:19;;;;;;;23.80;14.20;;;;;;;7.16;45.48;97864.23;261707;1095;25868;-71
2021/04/28 22:05:22;;;;;;;26.05;14.70;;;;;;;7.09;46.07;97868.31;261373;1096;23518;-72
2021/04/28 22:10:25;;;;;;;25.07;14.40;;;;;;;7.03;46.22;97864.93;261442;1101;24507;-72
2021/04/28 22:15:29;;;;;;;28.03;14.63;;;;;;;6.96;45.60;97861.84;261614;1094;23456;-72
2021/04/28 22:20:32;;;;;;;28.30;14.60;;;;;;;6.88;46.05;97860.59;261559;1095;27145;-72
2021/04/28 22:25:34;;;;;;;25.30;14.20;;;;;;;6.80;46.91;97864.70;261458;1094;22800;-71
2021/04/28 22:30:39;;;;;;;26.97;15.10;;;;;;;6.72;46.68;97852.02;261629;1101;22907;-71
2021/04/28 22:35:44;;;;;;;24.80;14.65;;;;;;;6.65;46.89;97847.03;261540;1095;24121;-71
2021/04/28 22:40:48;;;;;;;28.00;15.47;;;;;;;6.61;47.61;97850.56;261386;1093;22754;-71
2021/04/28 22:45:52;;;;;;;28.23;15.83;;;;;;;6.53;46.89;97837.88;261508;1093;24539;-71
2021/04/28 22:50:57;;;;;;;34.45;17.40;;;;;;;6.46;47.07;97847.02;261640;1099;24408;-72
2021/04/28 22:56:12;;;;;;;28.20;16.17;;;;;;;6.45;48.03;97848.08;261441;1093;23485;-71
2021/04/28 23:01:19;;;;;;;32.90;18.28;;;;;;;6.48;47.89;97838.74;261515;1101;25498;-71
2021/04/28 23:06:21;;;;;;;33.50;18.03;;;;;;;6.46;47.87;97831.05;261447;1101;24394;-71
2021/04/28 23:11:37;;;;;;;34.87;17.90;;;;;;;6.44;47.91;97841.16;261461;1093;25868;-73
2021/04/28 23:16:58;;;;;;;34.10;17.77;;;;;;;6.38;48.61;97836.99;261779;1093;25861;-72
2021/04/28 23:22:01;;;;;;;36.53;18.53;;;;;;;6.32;48.28;97830.94;261455;1095;25865;-71
2021/04/28 23:27:07;;;;;;;36.67;19.00;;;;;;;6.24;48.58;97830.75;261434;1100;22758;-72
2021/04/28 23:32:09;;;;;;;36.20;18.47;;;;;;;6.13;48.81;97822.89;261508;1093;25990;-72
2021/04/28 23:37:13;;;;;;;36.27;19.13;;;;;;;6.06;48.96;97826.94;261546;1093;25862;-72